createdAt,value
2022-10-05T00:00:54.592Z,100285.50
2022-10-05T00:03:22.657Z,100285.34
2022-10-05T00:05:50.024Z,100275.44
2022-10-05T00:08:22.534Z,100281.84
2022-10-05T00:10:50.640Z,100272.75
2022-10-05T00:13:21.759Z,100275.44
2022-10-05T00:15:50.030Z,100280.59
2022-10-05T00:18:19.943Z,100281.84
2022-10-05T00:20:48.866Z,100282.84
2022-10-05T00:23:29.370Z,100282.84
2022-10-05T00:26:12.304Z,100283.25
2022-10-05T00:28:41.391Z,100296.66
2022-10-05T00:31:25.751Z,100296.84
2022-10-05T00:33:56.583Z,100297.69
2022-10-05T00:36:26.019Z,100290.66
2022-10-05T00:38:53.307Z,100282.63
2022-10-05T00:41:55.239Z,100289.00
2022-10-05T00:44:50.737Z,100279.94
2022-10-05T00:47:32.591Z,100283.66
2022-10-05T00:50:42.604Z,100283.66
2022-10-05T00:53:45.665Z,100279.94
2022-10-05T00:56:18.616Z,100284.28
2022-10-05T00:59:25.685Z,100288.59
2022-10-05T01:02:31.874Z,100288.59
2022-10-05T01:05:54.920Z,100287.97
2022-10-05T01:09:27.931Z,100284.84
2022-10-05T01:12:37.245Z,100271.63
2022-10-05T01:15:39.573Z,100263.34
2022-10-05T01:18:25.908Z,100256.75
2022-10-05T01:21:13.638Z,100250.94
2022-10-05T01:24:05.386Z,100253.38
2022-10-05T01:27:09.515Z,100250.44
2022-10-05T01:30:12.247Z,100251.25
2022-10-05T01:32:58.563Z,100253.69
2022-10-05T01:35:38.237Z,100252.41
2022-10-05T01:38:42.563Z,100251.28
2022-10-05T01:41:55.052Z,100254.38
2022-10-05T01:44:50.746Z,100258.28
2022-10-05T01:47:37.432Z,100249.22
2022-10-05T01:50:26.145Z,100254.38
2022-10-05T01:53:37.803Z,100248.19
2022-10-05T01:56:43.346Z,100260.75
2022-10-05T01:59:46.812Z,100266.94
2022-10-05T02:02:18.802Z,100262.41
2022-10-05T02:05:02.932Z,100266.72
2022-10-05T02:07:57.460Z,100267.56
2022-10-05T02:10:44.575Z,100270.50
2022-10-05T02:13:53.075Z,100260.59
2022-10-05T02:16:44.113Z,100257.34
2022-10-05T02:19:42.608Z,100264.16
2022-10-05T02:22:27.585Z,100259.03
2022-10-05T02:25:03.110Z,100267.31
2022-10-05T02:27:36.744Z,100260.13
2022-10-05T02:30:11.581Z,100261.31
2022-10-05T02:33:33.729Z,100271.81
2022-10-05T02:36:16.011Z,100270.34
2022-10-05T02:39:26.485Z,100273.41
2022-10-05T02:42:20.084Z,100273.38
2022-10-05T02:45:26.236Z,100259.72
2022-10-05T02:48:19.396Z,100248.38
2022-10-05T02:51:28.811Z,100258.44
2022-10-05T02:54:27.849Z,100242.84
2022-10-05T02:57:23.944Z,100238.72
2022-10-05T03:00:04.491Z,100241.84
2022-10-05T03:02:52.965Z,100238.34
2022-10-05T03:05:35.277Z,100228.06
2022-10-05T03:08:17.102Z,100226.03
2022-10-05T03:11:44.303Z,100243.34
2022-10-05T03:14:43.238Z,100239.66
2022-10-05T03:17:22.395Z,100242.97
2022-10-05T03:20:19.733Z,100236.13
2022-10-05T03:23:00.487Z,100230.97
2022-10-05T03:25:48.285Z,100236.75
2022-10-05T03:28:40.218Z,100230.53
2022-10-05T03:31:25.199Z,100228.88
2022-10-05T03:34:16.121Z,100231.72
2022-10-05T03:36:56.667Z,100225.94
2022-10-05T03:40:02.925Z,100220.78
2022-10-05T03:43:03.654Z,100217.66
2022-10-05T03:45:48.126Z,100214.34
2022-10-05T03:48:30.564Z,100214.53
2022-10-05T03:51:24.979Z,100216.38
2022-10-05T03:54:05.606Z,100216.38
2022-10-05T03:56:41.399Z,100219.06
2022-10-05T03:59:16.897Z,100210.41
2022-10-05T04:01:55.715Z,100219.84
2022-10-05T04:04:34.758Z,100220.03
2022-10-05T04:07:02.217Z,100226.03
2022-10-05T04:09:38.409Z,100225.19
2022-10-05T04:12:30.326Z,100231.56
2022-10-05T04:15:06.841Z,100233.22
2022-10-05T04:17:36.428Z,100235.91
2022-10-05T04:20:38.259Z,100230.16
2022-10-05T04:23:58.750Z,100236.16
2022-10-05T04:26:43.591Z,100228.94
2022-10-05T04:29:37.886Z,100226.25
2022-10-05T04:32:37.821Z,100226.88
2022-10-05T04:35:38.063Z,100232.03
2022-10-05T04:38:26.734Z,100234.91
2022-10-05T04:41:14.710Z,100233.63
2022-10-05T04:44:13.785Z,100232.78
2022-10-05T04:47:17.787Z,100229.50
2022-10-05T04:49:47.547Z,100228.66
2022-10-05T04:53:03.834Z,100234.38
2022-10-05T04:55:55.607Z,100233.13
2022-10-05T04:59:02.150Z,100245.88
2022-10-05T05:01:54.857Z,100239.69
2022-10-05T05:04:35.834Z,100244.22
2022-10-05T05:07:21.459Z,100241.94
2022-10-05T05:10:07.558Z,100241.28
2022-10-05T05:13:12.722Z,100245.19
2022-10-05T05:16:08.103Z,100247.84
2022-10-05T05:19:01.939Z,100243.72
2022-10-05T05:21:35.920Z,100249.25
2022-10-05T05:24:33.807Z,100250.28
2022-10-05T05:27:34.777Z,100251.47
2022-10-05T05:30:24.666Z,100258.00
2022-10-05T05:33:18.848Z,100260.88
2022-10-05T05:36:23.356Z,100259.22
2022-10-05T05:39:23.191Z,100274.47
2022-10-05T05:42:25.040Z,100269.47
2022-10-05T05:44:54.797Z,100276.66
2022-10-05T05:47:38.358Z,100276.03
2022-10-05T05:50:30.317Z,100283.88
2022-10-05T05:53:24.995Z,100281.03
2022-10-05T05:56:14.154Z,100296.88
2022-10-05T05:59:16.965Z,100294.22
2022-10-05T06:01:52.679Z,100302.88
2022-10-05T06:04:28.635Z,100303.69
2022-10-05T06:06:58.082Z,100310.69
2022-10-05T06:09:43.241Z,100311.34
2022-10-05T06:12:50.225Z,100311.97
2022-10-05T06:15:43.750Z,100304.63
2022-10-05T06:18:17.074Z,100310.63
2022-10-05T06:21:19.685Z,100312.28
2022-10-05T06:24:00.751Z,100322.59
2022-10-05T06:26:52.221Z,100320.53
2022-10-05T06:29:24.985Z,100315.84
2022-10-05T06:32:27.531Z,100323.69
2022-10-05T06:35:17.863Z,100325.53
2022-10-05T06:38:49.994Z,100324.69
2022-10-05T06:41:53.909Z,100326.75
2022-10-05T06:45:03.953Z,100326.09
2022-10-05T06:48:02.804Z,100333.28
2022-10-05T06:51:50.516Z,100331.63
2022-10-05T06:55:01.105Z,100329.59
2022-10-05T06:57:49.130Z,100327.56
2022-10-05T07:00:24.914Z,100327.19
2022-10-05T07:03:47.294Z,100323.47
2022-10-05T07:06:30.445Z,100323.75
2022-10-05T07:09:16.428Z,100316.34
2022-10-05T07:12:11.175Z,100321.34
2022-10-05T07:14:58.353Z,100314.38
2022-10-05T07:18:10.335Z,100319.81
2022-10-05T07:21:18.912Z,100310.34
2022-10-05T07:24:33.069Z,100322.97
2022-10-05T07:27:23.745Z,100325.50
2022-10-05T07:30:14.801Z,100330.09
2022-10-05T07:33:13.241Z,100329.94
2022-10-05T07:37:15.344Z,100329.63
2022-10-05T07:40:03.995Z,100326.97
2022-10-05T07:42:59.842Z,100332.19
2022-10-05T07:45:52.989Z,100334.72
2022-10-05T07:48:35.728Z,100332.72
2022-10-05T07:51:34.177Z,100324.31
2022-10-05T07:54:24.306Z,100329.13
2022-10-05T07:57:29.465Z,100327.75
2022-10-05T08:00:13.635Z,100333.00
2022-10-05T08:02:55.408Z,100333.88
2022-10-05T08:05:30.722Z,100334.75
2022-10-05T08:08:31.970Z,100340.34
2022-10-05T08:11:12.291Z,100332.75
2022-10-05T08:14:06.158Z,100335.22
2022-10-05T08:16:38.403Z,100336.50
2022-10-05T08:19:37.131Z,100330.31
2022-10-05T08:22:13.110Z,100326.59
2022-10-05T08:25:04.460Z,100324.97
2022-10-05T08:27:56.901Z,100317.31
2022-10-05T08:30:24.678Z,100315.88
2022-10-05T08:33:13.835Z,100316.72
2022-10-05T08:35:51.474Z,100317.34
2022-10-05T08:38:28.701Z,100322.09
2022-10-05T08:41:52.709Z,100327.69
2022-10-05T08:45:06.048Z,100330.75
2022-10-05T08:48:09.930Z,100331.56
2022-10-05T08:51:04.758Z,100324.75
2022-10-05T08:54:11.154Z,100323.69
2022-10-05T08:56:49.624Z,100322.63
2022-10-05T08:59:34.955Z,100326.13
2022-10-05T09:02:37.317Z,100321.56
2022-10-05T09:05:37.933Z,100318.63
2022-10-05T09:08:35.669Z,100317.78
2022-10-05T09:11:03.955Z,100314.25
2022-10-05T09:13:58.023Z,100319.38
2022-10-05T09:16:44.193Z,100314.81
2022-10-05T09:19:51.404Z,100319.72
2022-10-05T09:22:39.026Z,100313.28
2022-10-05T09:25:28.670Z,100320.06
2022-10-05T09:28:03.504Z,100313.81
2022-10-05T09:31:03.177Z,100311.31
2022-10-05T09:34:06.444Z,100308.97
2022-10-05T09:37:21.318Z,100297.94
2022-10-05T09:40:20.338Z,100297.41
2022-10-05T09:43:10.609Z,100300.94
2022-10-05T09:46:03.976Z,100291.97
2022-10-05T09:49:28.542Z,100292.75
2022-10-05T09:52:15.147Z,100299.53
2022-10-05T09:55:27.597Z,100289.75
2022-10-05T09:58:28.337Z,100293.56
2022-10-05T10:01:34.492Z,100282.88
2022-10-05T10:04:32.515Z,100275.34
2022-10-05T10:07:17.476Z,100284.81
2022-10-05T10:10:29.260Z,100276.25
2022-10-05T10:13:21.085Z,100286.75
2022-10-05T10:16:31.808Z,100275.69
2022-10-05T10:19:29.026Z,100267.88
2022-10-05T10:22:52.090Z,100269.00
2022-10-05T10:25:27.919Z,100265.72
2022-10-05T10:28:25.640Z,100257.31
2022-10-05T10:31:26.509Z,100255.72
2022-10-05T10:34:28.692Z,100254.72
2022-10-05T10:37:33.529Z,100252.28
2022-10-05T10:40:30.670Z,100258.56
2022-10-05T10:43:18.892Z,100254.59
2022-10-05T10:46:30.878Z,100264.72
2022-10-05T10:49:18.873Z,100254.63
2022-10-05T10:52:24.637Z,100261.44
2022-10-05T10:55:44.383Z,100255.09
2022-10-05T10:59:01.949Z,100245.69
2022-10-05T11:01:50.059Z,100241.69
2022-10-05T11:04:38.087Z,100252.63
2022-10-05T11:07:32.644Z,100244.25
2022-10-05T11:10:29.150Z,100246.59
2022-10-05T11:13:21.286Z,100251.72
2022-10-05T11:16:15.942Z,100251.47
2022-10-05T11:19:24.897Z,100246.09
2022-10-05T11:22:41.470Z,100240.53
2022-10-05T11:25:45.811Z,100245.09
2022-10-05T11:28:59.009Z,100244.69
2022-10-05T11:32:19.991Z,100235.59
2022-10-05T11:35:07.551Z,100235.03
2022-10-05T11:38:02.062Z,100232.00
2022-10-05T11:41:06.297Z,100222.03
2022-10-05T11:44:12.728Z,100223.84
2022-10-05T11:46:55.404Z,100212.34
2022-10-05T11:50:13.555Z,100205.66
2022-10-05T11:53:13.779Z,100201.38
2022-10-05T11:56:27.214Z,100204.91
2022-10-05T11:59:09.138Z,100194.16
2022-10-05T12:02:15.799Z,100195.13
2022-10-05T12:05:21.459Z,100178.31
2022-10-05T12:08:20.318Z,100180.28
2022-10-05T12:11:30.648Z,100175.47
2022-10-05T12:14:12.293Z,100169.84
2022-10-05T12:17:05.733Z,100172.84
2022-10-05T12:19:42.017Z,100170.53
2022-10-05T12:22:37.295Z,100170.00
2022-10-05T12:25:46.081Z,100160.66
2022-10-05T12:28:23.374Z,100162.69
2022-10-05T12:31:17.947Z,100161.38
2022-10-05T12:33:58.339Z,100158.75
2022-10-05T12:37:14.957Z,100154.50
2022-10-05T12:40:30.526Z,100152.91
2022-10-05T12:43:33.800Z,100147.78
2022-10-05T12:46:32.469Z,100148.69
2022-10-05T12:49:30.442Z,100153.59
2022-10-05T12:52:28.195Z,100151.75
2022-10-05T12:55:13.778Z,100141.25
2022-10-05T12:57:58.192Z,100141.84
2022-10-05T13:00:25.700Z,100134.28
2022-10-05T13:03:32.004Z,100135.66
2022-10-05T13:06:24.310Z,100136.53
2022-10-05T13:09:12.887Z,100133.28
2022-10-05T13:11:52.399Z,100144.47
2022-10-05T13:14:43.339Z,100134.69
2022-10-05T13:17:54.174Z,100131.47
2022-10-05T13:20:40.398Z,100136.41
2022-10-05T13:23:31.672Z,100131.28
2022-10-05T13:26:07.785Z,100137.28
2022-10-05T13:28:49.245Z,100126.69
2022-10-05T13:31:40.856Z,100125.31
2022-10-05T13:34:31.636Z,100124.50
2022-10-05T13:37:27.881Z,100123.13
2022-10-05T13:40:10.187Z,100125.88
2022-10-05T13:43:20.199Z,100118.25
2022-10-05T13:46:02.851Z,100118.25
2022-10-05T13:48:47.712Z,100114.19
2022-10-05T13:51:17.740Z,100119.38
2022-10-05T13:54:30.377Z,100117.47
2022-10-05T13:57:26.243Z,100125.91
2022-10-05T14:00:02.664Z,100113.91
2022-10-05T14:02:43.332Z,100114.19
2022-10-05T14:05:29.051Z,100118.03
2022-10-05T14:08:04.309Z,100116.66
2022-10-05T14:10:43.936Z,100111.19
2022-10-05T14:13:46.312Z,100102.75
2022-10-05T14:16:13.300Z,100103.56
2022-10-05T14:19:18.976Z,100097.84
2022-10-05T14:22:01.675Z,100102.47
2022-10-05T14:24:49.179Z,100100.31
2022-10-05T14:27:30.922Z,100097.00
2022-10-05T14:30:12.793Z,100090.75
2022-10-05T14:33:03.779Z,100090.25
2022-10-05T14:35:51.835Z,100097.31
2022-10-05T14:38:21.869Z,100089.38
2022-10-05T14:41:27.574Z,100086.63
2022-10-05T14:44:04.795Z,100086.63
2022-10-05T14:46:34.761Z,100091.06
2022-10-05T14:49:37.255Z,100094.31
2022-10-05T14:53:18.011Z,100084.47
2022-10-05T14:56:17.201Z,100091.56
2022-10-05T14:59:15.274Z,100085.56
2022-10-05T15:01:54.823Z,100077.38
2022-10-05T15:04:52.064Z,100083.38
2022-10-05T15:07:38.851Z,100078.72
2022-10-05T15:10:32.775Z,100076.00
2022-10-05T15:13:15.993Z,100076.31
2022-10-05T15:15:54.902Z,100075.75
2022-10-05T15:18:51.354Z,100071.13
2022-10-05T15:22:07.214Z,100068.66
2022-10-05T15:24:50.434Z,100075.75
2022-10-05T15:28:01.013Z,100070.28
2022-10-05T15:30:28.203Z,100073.56
2022-10-05T15:33:20.412Z,100068.66
2022-10-05T15:36:22.792Z,100071.41
2022-10-05T15:39:10.849Z,100071.13
2022-10-05T15:42:02.023Z,100073.84
2022-10-05T15:45:02.245Z,100066.50
2022-10-05T15:47:59.935Z,100063.50
2022-10-05T15:50:35.689Z,100061.56
2022-10-05T15:53:23.487Z,100056.09
2022-10-05T15:56:03.672Z,100063.47
2022-10-05T15:58:42.279Z,100059.38
2022-10-05T16:01:31.092Z,100050.94
2022-10-05T16:04:39.034Z,100049.56
2022-10-05T16:07:38.592Z,100052.03
2022-10-05T16:10:23.339Z,100049.53
2022-10-05T16:13:20.811Z,100053.34
2022-10-05T16:16:21.039Z,100047.59
2022-10-05T16:19:11.009Z,100045.44
2022-10-05T16:22:18.850Z,100052.78
2022-10-05T16:25:09.218Z,100047.03
2022-10-05T16:28:14.420Z,100042.38
2022-10-05T16:31:21.960Z,100048.84
2022-10-05T16:34:01.196Z,100039.56
2022-10-05T16:36:52.417Z,100045.50
2022-10-05T16:39:48.684Z,100050.91
2022-10-05T16:42:34.738Z,100051.09
2022-10-05T16:45:57.452Z,100060.25
2022-10-05T16:48:34.174Z,100048.50
2022-10-05T16:51:41.899Z,100056.53
2022-10-05T16:54:23.490Z,100062.72
2022-10-05T16:56:59.313Z,100063.22
2022-10-05T16:59:45.478Z,100066.16
2022-10-05T17:02:56.704Z,100070.38
2022-10-05T17:06:24.821Z,100065.41
2022-10-05T17:09:38.220Z,100077.31
2022-10-05T17:12:57.904Z,100081.31
2022-10-05T17:15:55.710Z,100085.38
2022-10-05T17:19:06.274Z,100092.38
2022-10-05T17:21:55.133Z,100097.19
2022-10-05T17:25:04.743Z,100105.28
2022-10-05T17:27:51.109Z,100109.06
2022-10-05T17:30:27.352Z,100107.63
2022-10-05T17:33:13.926Z,100117.34
2022-10-05T17:36:00.814Z,100121.66
2022-10-05T17:38:50.644Z,100115.09
2022-10-05T17:41:22.850Z,100125.66
2022-10-05T17:44:20.841Z,100135.34
2022-10-05T17:47:02.868Z,100142.34
2022-10-05T17:50:16.230Z,100147.47
2022-10-05T17:53:03.356Z,100148.19
2022-10-05T17:55:33.964Z,100157.88
2022-10-05T17:58:23.990Z,100161.38
2022-10-05T18:00:57.217Z,100164.00
2022-10-05T18:03:48.025Z,100170.97
2022-10-05T18:06:37.287Z,100180.16
2022-10-05T18:09:17.274Z,100175.75
2022-10-05T18:11:49.194Z,100186.31
2022-10-05T18:14:24.766Z,100190.31
2022-10-05T18:17:12.097Z,100188.13
2022-10-05T18:19:39.529Z,100190.47
2022-10-05T18:22:15.553Z,100192.88
2022-10-05T18:25:05.874Z,100195.25
2022-10-05T18:28:27.091Z,100197.91
2022-10-05T18:31:20.996Z,100211.38
2022-10-05T18:34:03.361Z,100219.41
2022-10-05T18:36:38.075Z,100216.59
2022-10-05T18:39:35.392Z,100224.66
2022-10-05T18:42:24.526Z,100229.19
2022-10-05T18:45:20.407Z,100222.84
2022-10-05T18:47:52.643Z,100230.28
2022-10-05T18:50:43.916Z,100237.22
2022-10-05T18:53:13.461Z,100242.06
2022-10-05T18:56:24.757Z,100246.56
2022-10-05T18:59:20.611Z,100245.66
2022-10-05T19:02:19.883Z,100241.78
2022-10-05T19:05:48.776Z,100256.88
2022-10-05T19:09:03.382Z,100264.56
2022-10-05T19:11:51.133Z,100266.34
2022-10-05T19:14:37.321Z,100265.66
2022-10-05T19:17:10.151Z,100259.88
2022-10-05T19:20:08.785Z,100264.97
2022-10-05T19:23:09.327Z,100269.19
2022-10-05T19:25:52.989Z,100273.47
2022-10-05T19:28:58.475Z,100274.97
2022-10-05T19:31:50.123Z,100279.47
2022-10-05T19:34:49.684Z,100282.88
2022-10-05T19:37:25.669Z,100287.13
2022-10-05T19:40:07.248Z,100298.41
2022-10-05T19:43:23.808Z,100296.59
2022-10-05T19:46:06.053Z,100303.56
2022-10-05T19:48:44.487Z,100296.97
2022-10-05T19:51:29.226Z,100300.16
2022-10-05T19:54:25.753Z,100310.84
2022-10-05T19:56:55.645Z,100309.44
2022-10-05T19:59:27.875Z,100310.97
2022-10-05T20:01:57.883Z,100319.31
2022-10-05T20:04:37.158Z,100315.41
2022-10-05T20:07:04.895Z,100325.66
2022-10-05T20:09:59.394Z,100327.41
2022-10-05T20:12:59.480Z,100327.88
2022-10-05T20:15:51.899Z,100330.78
2022-10-05T20:18:56.906Z,100339.63
2022-10-05T20:21:50.707Z,100344.66
2022-10-05T20:24:23.529Z,100350.53
2022-10-05T20:27:06.368Z,100351.78
2022-10-05T20:29:35.842Z,100357.44
2022-10-05T20:32:17.924Z,100367.06
2022-10-05T20:34:47.705Z,100372.47
2022-10-05T20:37:18.131Z,100372.94
2022-10-05T20:39:45.480Z,100374.00
2022-10-05T20:42:12.471Z,100375.06
2022-10-05T20:44:39.921Z,100386.06
2022-10-05T20:47:09.550Z,100386.53
2022-10-05T20:49:39.025Z,100396.53
2022-10-05T20:52:10.082Z,100390.53
2022-10-05T20:54:39.133Z,100395.31
2022-10-05T20:57:06.891Z,100400.13
2022-10-05T20:59:35.550Z,100397.91
2022-10-05T21:02:03.846Z,100410.34
2022-10-05T21:04:40.014Z,100413.50
2022-10-05T21:07:08.135Z,100407.50
2022-10-05T21:09:37.887Z,100415.03
2022-10-05T21:12:04.848Z,100414.41
2022-10-05T21:14:34.144Z,100417.56
2022-10-05T21:17:01.899Z,100418.88
2022-10-05T21:19:29.891Z,100421.72
2022-10-05T21:22:02.386Z,100423.84
2022-10-05T21:24:29.339Z,100417.22
2022-10-05T21:26:57.440Z,100424.75
2022-10-05T21:29:24.491Z,100421.44
2022-10-05T21:31:51.682Z,100423.53
2022-10-05T21:34:18.748Z,100432.09
2022-10-05T21:36:45.961Z,100426.09
2022-10-05T21:39:12.976Z,100423.84
2022-10-05T21:41:39.961Z,100428.66
2022-10-05T21:44:06.932Z,100428.06
2022-10-05T21:46:36.664Z,100440.13
2022-10-05T21:49:05.164Z,100445.75
2022-10-05T21:51:33.602Z,100444.34
2022-10-05T21:54:06.558Z,100445.00
2022-10-05T21:56:38.598Z,100448.75
2022-10-05T21:59:09.435Z,100443.78
2022-10-05T22:01:36.519Z,100449.63
2022-10-05T22:04:05.092Z,100455.03
2022-10-05T22:06:33.638Z,100462.53
2022-10-05T22:09:00.894Z,100462.72
2022-10-05T22:11:28.956Z,100464.03
2022-10-05T22:14:02.320Z,100467.78
2022-10-05T22:16:33.366Z,100469.88
2022-10-05T22:19:06.499Z,100468.19
2022-10-05T22:21:38.119Z,100469.25
2022-10-05T22:24:05.497Z,100470.53
2022-10-05T22:26:34.703Z,100478.84
2022-10-05T22:29:02.469Z,100475.53
2022-10-05T22:31:29.565Z,100480.31
2022-10-05T22:33:56.701Z,100486.78
2022-10-05T22:36:23.737Z,100484.50
2022-10-05T22:38:50.773Z,100482.50
2022-10-05T22:41:18.396Z,100489.94
2022-10-05T22:43:49.978Z,100488.53
2022-10-05T22:46:17.570Z,100495.22
2022-10-05T22:48:44.617Z,100499.16
2022-10-05T22:51:11.592Z,100495.84
2022-10-05T22:53:38.738Z,100498.97
2022-10-05T22:56:12.011Z,100501.06
2022-10-05T22:58:40.833Z,100500.69
2022-10-05T23:01:11.438Z,100504.63
2022-10-05T23:03:39.017Z,100517.53
2022-10-05T23:06:10.173Z,100516.09
2022-10-05T23:08:39.121Z,100514.66
2022-10-05T23:11:12.432Z,100514.84
2022-10-05T23:13:40.423Z,100518.81
2022-10-05T23:16:11.556Z,100515.28
2022-10-05T23:18:39.307Z,100525.22
2022-10-05T23:21:08.416Z,100511.97
2022-10-05T23:23:41.419Z,100514.28
2022-10-05T23:26:10.591Z,100513.66
2022-10-05T23:28:46.928Z,100525.94
2022-10-05T23:31:17.411Z,100530.69
2022-10-05T23:33:45.049Z,100524.47
2022-10-05T23:36:28.103Z,100536.31
2022-10-05T23:38:55.046Z,100538.19
2022-10-05T23:41:22.274Z,100529.25
2022-10-05T23:43:49.267Z,100538.19
2022-10-05T23:46:17.595Z,100532.19
2022-10-05T23:48:44.651Z,100531.34
2022-10-05T23:51:13.586Z,100533.22
2022-10-05T23:53:40.575Z,100541.31
2022-10-05T23:56:07.837Z,100547.75
2022-10-05T23:58:34.771Z,100543.59
